sensor_id;sensor_type;location;lat;lon;timestamp;pressure;altitude;pressure_sealevel;temperature;humidity
64141;BME280;50436;50.618;7.932;2023-07-22T00:02:18;96451.84;;;10.98;100.00
64141;BME280;50436;50.618;7.932;2023-07-22T00:05:04;96460.72;;;11.04;100.00
64141;BME280;50436;50.618;7.932;2023-07-22T00:07:50;96450.34;;;11.12;100.00
64141;BME280;50436;50.618;7.932;2023-07-22T00:10:42;96444.16;;;11.07;100.00
64141;BME280;50436;50.618;7.932;2023-07-22T00:13:28;96461.66;;;10.93;100.00
64141;BME280;50436;50.618;7.932;2023-07-22T00:16:14;96456.00;;;10.89;100.00
64141;BME280;50436;50.618;7.932;2023-07-22T00:19:00;96452.91;;;10.97;100.00
64141;BME280;50436;50.618;7.932;2023-07-22T00:21:46;96449.53;;;11.07;100.00
64141;BME280;50436;50.618;7.932;2023-07-22T00:24:32;96449.38;;;10.97;100.00
64141;BME280;50436;50.618;7.932;2023-07-22T00:27:19;96454.16;;;10.90;100.00
64141;BME280;50436;50.618;7.932;2023-07-22T00:30:06;96459.91;;;10.81;100.00
64141;BME280;50436;50.618;7.932;2023-07-22T00:32:52;96458.75;;;10.72;100.00
64141;BME280;50436;50.618;7.932;2023-07-22T00:35:38;96448.47;;;10.64;100.00
64141;BME280;50436;50.618;7.932;2023-07-22T00:38:25;96462.59;;;10.38;100.00
64141;BME280;50436;50.618;7.932;2023-07-22T00:41:10;96457.53;;;10.41;100.00
64141;BME280;50436;50.618;7.932;2023-07-22T00:43:57;96457.88;;;10.45;100.00
64141;BME280;50436;50.618;7.932;2023-07-22T00:46:42;96459.47;;;10.46;100.00
64141;BME280;50436;50.618;7.932;2023-07-22T00:49:29;96455.91;;;10.40;100.00
64141;BME280;50436;50.618;7.932;2023-07-22T00:52:15;96456.66;;;10.19;100.00
64141;BME280;50436;50.618;7.932;2023-07-22T00:55:02;96466.00;;;10.16;100.00
64141;BME280;50436;50.618;7.932;2023-07-22T00:57:48;96454.41;;;10.11;100.00
64141;BME280;50436;50.618;7.932;2023-07-22T01:00:34;96460.34;;;10.13;100.00
64141;BME280;50436;50.618;7.932;2023-07-22T01:03:20;96456.50;;;10.09;100.00
64141;BME280;50436;50.618;7.932;2023-07-22T01:06:06;96457.91;;;9.94;100.00
64141;BME280;50436;50.618;7.932;2023-07-22T01:08:53;96446.41;;;9.94;100.00
64141;BME280;50436;50.618;7.932;2023-07-22T01:11:38;96449.97;;;9.83;100.00
64141;BME280;50436;50.618;7.932;2023-07-22T01:14:24;96449.59;;;9.74;100.00
64141;BME280;50436;50.618;7.932;2023-07-22T01:17:12;96448.78;;;9.73;100.00
64141;BME280;50436;50.618;7.932;2023-07-22T01:19:59;96445.09;;;9.80;100.00
64141;BME280;50436;50.618;7.932;2023-07-22T01:22:52;96439.28;;;9.83;100.00
64141;BME280;50436;50.618;7.932;2023-07-22T01:25:39;96445.44;;;9.83;100.00
64141;BME280;50436;50.618;7.932;2023-07-22T01:28:25;96437.03;;;9.74;100.00
64141;BME280;50436;50.618;7.932;2023-07-22T01:31:11;96453.63;;;9.76;100.00
64141;BME280;50436;50.618;7.932;2023-07-22T01:33:57;96444.25;;;9.74;100.00
64141;BME280;50436;50.618;7.932;2023-07-22T01:36:47;96441.56;;;9.74;100.00
64141;BME280;50436;50.618;7.932;2023-07-22T01:39:33;96440.56;;;9.63;100.00
64141;BME280;50436;50.618;7.932;2023-07-22T01:42:19;96435.22;;;9.63;100.00
64141;BME280;50436;50.618;7.932;2023-07-22T01:45:06;96440.81;;;9.62;100.00
64141;BME280;50436;50.618;7.932;2023-07-22T01:47:53;96441.88;;;9.61;100.00
64141;BME280;50436;50.618;7.932;2023-07-22T01:50:39;96425.34;;;9.47;100.00
64141;BME280;50436;50.618;7.932;2023-07-22T01:53:24;96444.81;;;9.59;100.00
64141;BME280;50436;50.618;7.932;2023-07-22T01:56:11;96437.84;;;9.58;100.00
64141;BME280;50436;50.618;7.932;2023-07-22T01:58:59;96431.34;;;9.54;100.00
64141;BME280;50436;50.618;7.932;2023-07-22T02:01:45;96433.38;;;9.47;100.00
64141;BME280;50436;50.618;7.932;2023-07-22T02:04:31;96442.19;;;9.47;100.00
64141;BME280;50436;50.618;7.932;2023-07-22T02:07:16;96443.91;;;9.54;100.00
64141;BME280;50436;50.618;7.932;2023-07-22T02:10:03;96444.47;;;9.56;100.00
64141;BME280;50436;50.618;7.932;2023-07-22T02:12:48;96441.94;;;9.49;100.00
64141;BME280;50436;50.618;7.932;2023-07-22T02:15:35;96441.88;;;9.44;100.00
64141;BME280;50436;50.618;7.932;2023-07-22T02:18:21;96442.03;;;9.37;100.00
64141;BME280;50436;50.618;7.932;2023-07-22T02:21:06;96437.63;;;9.31;100.00
64141;BME280;50436;50.618;7.932;2023-07-22T02:23:52;96437.06;;;9.29;100.00
64141;BME280;50436;50.618;7.932;2023-07-22T02:26:38;96440.31;;;9.31;100.00
64141;BME280;50436;50.618;7.932;2023-07-22T02:29:24;96440.56;;;9.30;100.00
64141;BME280;50436;50.618;7.932;2023-07-22T02:32:10;96432.22;;;9.26;100.00
64141;BME280;50436;50.618;7.932;2023-07-22T02:34:56;96437.63;;;9.14;100.00
64141;BME280;50436;50.618;7.932;2023-07-22T02:37:41;96440.09;;;9.04;100.00
64141;BME280;50436;50.618;7.932;2023-07-22T02:40:27;96436.13;;;9.07;100.00
64141;BME280;50436;50.618;7.932;2023-07-22T02:43:13;96433.72;;;9.05;100.00
64141;BME280;50436;50.618;7.932;2023-07-22T02:46:02;96443.91;;;9.08;100.00
64141;BME280;50436;50.618;7.932;2023-07-22T02:48:49;96436.94;;;9.07;100.00
64141;BME280;50436;50.618;7.932;2023-07-22T02:51:35;96435.59;;;8.93;100.00
64141;BME280;50436;50.618;7.932;2023-07-22T02:54:21;96429.38;;;8.87;100.00
64141;BME280;50436;50.618;7.932;2023-07-22T02:57:07;96444.22;;;8.95;100.00
64141;BME280;50436;50.618;7.932;2023-07-22T02:59:53;96440.50;;;8.96;100.00
64141;BME280;50436;50.618;7.932;2023-07-22T03:02:39;96430.22;;;8.76;100.00
64141;BME280;50436;50.618;7.932;2023-07-22T03:05:29;96431.75;;;8.72;100.00
64141;BME280;50436;50.618;7.932;2023-07-22T03:08:16;96429.09;;;8.72;100.00
64141;BME280;50436;50.618;7.932;2023-07-22T03:11:03;96441.56;;;8.83;100.00
64141;BME280;50436;50.618;7.932;2023-07-22T03:13:49;96439.22;;;8.87;100.00
64141;BME280;50436;50.618;7.932;2023-07-22T03:16:35;96453.06;;;8.84;100.00
64141;BME280;50436;50.618;7.932;2023-07-22T03:19:21;96445.63;;;8.86;100.00
64141;BME280;50436;50.618;7.932;2023-07-22T03:22:06;96437.84;;;8.84;100.00
64141;BME280;50436;50.618;7.932;2023-07-22T03:24:53;96443.28;;;8.89;100.00
64141;BME280;50436;50.618;7.932;2023-07-22T03:27:39;96430.91;;;8.83;100.00
64141;BME280;50436;50.618;7.932;2023-07-22T03:30:25;96445.28;;;8.82;100.00
64141;BME280;50436;50.618;7.932;2023-07-22T03:33:11;96449.81;;;8.82;100.00
64141;BME280;50436;50.618;7.932;2023-07-22T03:35:57;96448.41;;;8.79;100.00
64141;BME280;50436;50.618;7.932;2023-07-22T03:38:43;96441.84;;;8.70;100.00
64141;BME280;50436;50.618;7.932;2023-07-22T03:41:29;96450.56;;;8.65;100.00
64141;BME280;50436;50.618;7.932;2023-07-22T03:44:14;96440.03;;;8.59;100.00
64141;BME280;50436;50.618;7.932;2023-07-22T03:47:00;96445.13;;;8.60;100.00
64141;BME280;50436;50.618;7.932;2023-07-22T03:49:46;96447.91;;;8.65;100.00
64141;BME280;50436;50.618;7.932;2023-07-22T03:52:32;96454.72;;;8.61;100.00
64141;BME280;50436;50.618;7.932;2023-07-22T03:55:18;96455.09;;;8.65;100.00
64141;BME280;50436;50.618;7.932;2023-07-22T03:58:07;96453.91;;;8.73;100.00
64141;BME280;50436;50.618;7.932;2023-07-22T04:00:53;96441.03;;;8.70;100.00
64141;BME280;50436;50.618;7.932;2023-07-22T04:03:39;96449.34;;;8.85;100.00
64141;BME280;50436;50.618;7.932;2023-07-22T04:06:25;96458.25;;;8.90;100.00
64141;BME280;50436;50.618;7.932;2023-07-22T04:09:10;96450.09;;;8.97;100.00
64141;BME280;50436;50.618;7.932;2023-07-22T04:11:56;96449.97;;;9.04;100.00
64141;BME280;50436;50.618;7.932;2023-07-22T04:14:42;96449.00;;;9.10;100.00
64141;BME280;50436;50.618;7.932;2023-07-22T04:17:28;96444.16;;;9.07;100.00
64141;BME280;50436;50.618;7.932;2023-07-22T04:20:14;96445.31;;;9.11;100.00
64141;BME280;50436;50.618;7.932;2023-07-22T04:23:00;96440.28;;;9.14;100.00
64141;BME280;50436;50.618;7.932;2023-07-22T04:25:48;96447.91;;;9.23;100.00
64141;BME280;50436;50.618;7.932;2023-07-22T04:28:34;96441.50;;;9.24;100.00
64141;BME280;50436;50.618;7.932;2023-07-22T04:31:20;96449.63;;;9.29;100.00
64141;BME280;50436;50.618;7.932;2023-07-22T04:34:06;96447.03;;;9.34;100.00
64141;BME280;50436;50.618;7.932;2023-07-22T04:36:52;96454.88;;;9.40;100.00
64141;BME280;50436;50.618;7.932;2023-07-22T04:39:38;96460.63;;;9.49;100.00
64141;BME280;50436;50.618;7.932;2023-07-22T04:42:24;96452.16;;;9.52;100.00
64141;BME280;50436;50.618;7.932;2023-07-22T04:45:11;96455.50;;;9.59;100.00
64141;BME280;50436;50.618;7.932;2023-07-22T04:47:57;96452.66;;;9.66;100.00
64141;BME280;50436;50.618;7.932;2023-07-22T04:50:43;96454.13;;;9.73;100.00
64141;BME280;50436;50.618;7.932;2023-07-22T04:53:30;96455.56;;;9.81;100.00
64141;BME280;50436;50.618;7.932;2023-07-22T04:56:16;96446.25;;;9.84;100.00
64141;BME280;50436;50.618;7.932;2023-07-22T04:59:02;96452.41;;;10.01;100.00
64141;BME280;50436;50.618;7.932;2023-07-22T05:01:48;96453.38;;;10.12;100.00
64141;BME280;50436;50.618;7.932;2023-07-22T05:04:34;96443.94;;;10.26;100.00
64141;BME280;50436;50.618;7.932;2023-07-22T05:07:20;96454.13;;;10.46;100.00
64141;BME280;50436;50.618;7.932;2023-07-22T05:10:07;96448.34;;;10.54;100.00
64141;BME280;50436;50.618;7.932;2023-07-22T05:12:57;96446.31;;;10.61;100.00
64141;BME280;50436;50.618;7.932;2023-07-22T05:15:43;96452.84;;;10.70;100.00
64141;BME280;50436;50.618;7.932;2023-07-22T05:18:29;96444.09;;;10.80;100.00
64141;BME280;50436;50.618;7.932;2023-07-22T05:21:15;96446.41;;;10.93;100.00
64141;BME280;50436;50.618;7.932;2023-07-22T05:24:01;96442.53;;;11.06;100.00
64141;BME280;50436;50.618;7.932;2023-07-22T05:26:46;96438.09;;;11.16;100.00
64141;BME280;50436;50.618;7.932;2023-07-22T05:29:32;96442.19;;;11.24;100.00
64141;BME280;50436;50.618;7.932;2023-07-22T05:32:18;96442.34;;;11.39;100.00
64141;BME280;50436;50.618;7.932;2023-07-22T05:35:04;96439.72;;;11.44;100.00
64141;BME280;50436;50.618;7.932;2023-07-22T05:37:51;96448.94;;;11.59;100.00
64141;BME280;50436;50.618;7.932;2023-07-22T05:40:36;96440.69;;;11.65;100.00
64141;BME280;50436;50.618;7.932;2023-07-22T05:43:22;96442.09;;;11.73;100.00
64141;BME280;50436;50.618;7.932;2023-07-22T05:46:11;96453.75;;;11.84;100.00
64141;BME280;50436;50.618;7.932;2023-07-22T05:48:57;96450.59;;;11.92;100.00
64141;BME280;50436;50.618;7.932;2023-07-22T05:51:42;96447.19;;;12.02;100.00
64141;BME280;50436;50.618;7.932;2023-07-22T05:54:28;96450.78;;;12.17;100.00
64141;BME280;50436;50.618;7.932;2023-07-22T05:57:14;96449.47;;;12.25;100.00
64141;BME280;50436;50.618;7.932;2023-07-22T06:00:00;96441.47;;;12.35;100.00
64141;BME280;50436;50.618;7.932;2023-07-22T06:02:46;96438.31;;;12.43;100.00
64141;BME280;50436;50.618;7.932;2023-07-22T06:05:31;96448.31;;;12.58;100.00
64141;BME280;50436;50.618;7.932;2023-07-22T06:08:17;96450.22;;;12.68;100.00
64141;BME280;50436;50.618;7.932;2023-07-22T06:11:03;96447.06;;;12.81;100.00
64141;BME280;50436;50.618;7.932;2023-07-22T06:13:49;96451.66;;;12.91;100.00
64141;BME280;50436;50.618;7.932;2023-07-22T06:16:35;96442.28;;;12.98;100.00
64141;BME280;50436;50.618;7.932;2023-07-22T06:19:21;96448.50;;;13.04;100.00
64141;BME280;50436;50.618;7.932;2023-07-22T06:22:06;96450.41;;;13.14;100.00
64141;BME280;50436;50.618;7.932;2023-07-22T06:24:52;96460.13;;;13.30;100.00
64141;BME280;50436;50.618;7.932;2023-07-22T06:27:38;96452.09;;;13.35;100.00
64141;BME280;50436;50.618;7.932;2023-07-22T06:30:24;96453.47;;;13.48;100.00
64141;BME280;50436;50.618;7.932;2023-07-22T06:33:13;96453.50;;;13.63;100.00
64141;BME280;50436;50.618;7.932;2023-07-22T06:35:59;96459.69;;;13.74;100.00
64141;BME280;50436;50.618;7.932;2023-07-22T06:38:44;96458.06;;;13.83;100.00
64141;BME280;50436;50.618;7.932;2023-07-22T06:41:30;96456.19;;;13.83;100.00
64141;BME280;50436;50.618;7.932;2023-07-22T06:44:16;96445.16;;;13.80;100.00
64141;BME280;50436;50.618;7.932;2023-07-22T06:47:02;96461.31;;;13.95;100.00
64141;BME280;50436;50.618;7.932;2023-07-22T06:49:48;96462.09;;;14.11;100.00
64141;BME280;50436;50.618;7.932;2023-07-22T06:52:36;96462.09;;;14.26;100.00
64141;BME280;50436;50.618;7.932;2023-07-22T06:55:22;96470.41;;;14.35;100.00
64141;BME280;50436;50.618;7.932;2023-07-22T06:58:08;96462.06;;;14.36;100.00
64141;BME280;50436;50.618;7.932;2023-07-22T07:00:54;96462.59;;;14.38;100.00
64141;BME280;50436;50.618;7.932;2023-07-22T07:03:41;96465.84;;;14.40;100.00
64141;BME280;50436;50.618;7.932;2023-07-22T07:06:28;96463.66;;;14.53;100.00
64141;BME280;50436;50.618;7.932;2023-07-22T07:09:15;96463.63;;;14.63;100.00
64141;BME280;50436;50.618;7.932;2023-07-22T07:12:01;96467.69;;;14.65;100.00
64141;BME280;50436;50.618;7.932;2023-07-22T07:14:50;96468.44;;;14.76;100.00
64141;BME280;50436;50.618;7.932;2023-07-22T07:17:37;96468.69;;;14.85;100.00
64141;BME280;50436;50.618;7.932;2023-07-22T07:20:23;96468.34;;;15.01;100.00
64141;BME280;50436;50.618;7.932;2023-07-22T07:23:08;96471.53;;;15.14;100.00
64141;BME280;50436;50.618;7.932;2023-07-22T07:25:54;96469.06;;;15.22;100.00
64141;BME280;50436;50.618;7.932;2023-07-22T07:28:40;96464.97;;;15.30;100.00
64141;BME280;50436;50.618;7.932;2023-07-22T07:31:26;96464.09;;;15.40;100.00
64141;BME280;50436;50.618;7.932;2023-07-22T07:34:13;96459.44;;;15.55;100.00
64141;BME280;50436;50.618;7.932;2023-07-22T07:36:58;96464.78;;;15.60;100.00
64141;BME280;50436;50.618;7.932;2023-07-22T07:39:44;96461.81;;;15.67;100.00
64141;BME280;50436;50.618;7.932;2023-07-22T07:42:33;96465.28;;;15.73;100.00
64141;BME280;50436;50.618;7.932;2023-07-22T07:45:19;96464.75;;;15.71;100.00
64141;BME280;50436;50.618;7.932;2023-07-22T07:48:06;96463.47;;;15.58;100.00
64141;BME280;50436;50.618;7.932;2023-07-22T07:50:51;96476.19;;;15.47;100.00
64141;BME280;50436;50.618;7.932;2023-07-22T07:53:37;96470.22;;;15.55;100.00
64141;BME280;50436;50.618;7.932;2023-07-22T07:56:23;96476.59;;;15.75;100.00
64141;BME280;50436;50.618;7.932;2023-07-22T07:59:09;96475.19;;;15.82;100.00
64141;BME280;50436;50.618;7.932;2023-07-22T08:01:55;96473.19;;;15.98;100.00
64141;BME280;50436;50.618;7.932;2023-07-22T08:04:41;96467.41;;;16.10;100.00
64141;BME280;50436;50.618;7.932;2023-07-22T08:07:26;96472.31;;;16.03;100.00
64141;BME280;50436;50.618;7.932;2023-07-22T08:10:12;96471.66;;;16.21;100.00
64141;BME280;50436;50.618;7.932;2023-07-22T08:12:58;96471.22;;;16.38;100.00
64141;BME280;50436;50.618;7.932;2023-07-22T08:15:45;96458.63;;;16.28;100.00
64141;BME280;50436;50.618;7.932;2023-07-22T08:18:31;96475.44;;;16.20;100.00
64141;BME280;50436;50.618;7.932;2023-07-22T08:21:17;96455.91;;;15.99;100.00
64141;BME280;50436;50.618;7.932;2023-07-22T08:24:03;96470.53;;;16.27;100.00
64141;BME280;50436;50.618;7.932;2023-07-22T08:26:49;96473.97;;;16.57;100.00
64141;BME280;50436;50.618;7.932;2023-07-22T08:29:36;96461.06;;;16.54;100.00
64141;BME280;50436;50.618;7.932;2023-07-22T08:32:22;96468.69;;;16.76;100.00
64141;BME280;50436;50.618;7.932;2023-07-22T08:35:08;96460.63;;;16.94;100.00
64141;BME280;50436;50.618;7.932;2023-07-22T08:37:53;96459.53;;;16.71;100.00
64141;BME280;50436;50.618;7.932;2023-07-22T08:40:40;96464.22;;;16.90;100.00
64141;BME280;50436;50.618;7.932;2023-07-22T08:43:28;96462.19;;;16.77;100.00
64141;BME280;50436;50.618;7.932;2023-07-22T08:46:15;96461.34;;;17.05;100.00
64141;BME280;50436;50.618;7.932;2023-07-22T08:49:01;96470.66;;;17.37;100.00
64141;BME280;50436;50.618;7.932;2023-07-22T08:51:50;96470.56;;;17.23;100.00
64141;BME280;50436;50.618;7.932;2023-07-22T08:54:36;96475.19;;;16.98;100.00
64141;BME280;50436;50.618;7.932;2023-07-22T08:57:23;96467.66;;;17.38;100.00
64141;BME280;50436;50.618;7.932;2023-07-22T09:00:10;96462.59;;;17.50;100.00
64141;BME280;50436;50.618;7.932;2023-07-22T09:02:58;96469.88;;;17.74;96.87
64141;BME280;50436;50.618;7.932;2023-07-22T09:05:44;96461.75;;;17.93;98.48
64141;BME280;50436;50.618;7.932;2023-07-22T09:08:31;96460.00;;;18.16;100.00
64141;BME280;50436;50.618;7.932;2023-07-22T09:11:19;96468.63;;;17.85;98.44
64141;BME280;50436;50.618;7.932;2023-07-22T09:14:05;96457.66;;;17.76;95.24
64141;BME280;50436;50.618;7.932;2023-07-22T09:16:51;96452.22;;;17.58;94.45
64141;BME280;50436;50.618;7.932;2023-07-22T09:19:37;96463.41;;;17.89;92.13
64141;BME280;50436;50.618;7.932;2023-07-22T09:22:26;96452.75;;;17.78;88.24
64141;BME280;50436;50.618;7.932;2023-07-22T09:25:21;96457.03;;;18.31;91.50
64141;BME280;50436;50.618;7.932;2023-07-22T09:28:07;96446.63;;;18.52;88.51
64141;BME280;50436;50.618;7.932;2023-07-22T09:31:01;96452.69;;;18.62;81.48
64141;BME280;50436;50.618;7.932;2023-07-22T09:33:51;96451.81;;;19.08;76.50
64141;BME280;50436;50.618;7.932;2023-07-22T09:36:50;96439.31;;;19.35;75.85
64141;BME280;50436;50.618;7.932;2023-07-22T09:39:37;96443.09;;;19.84;74.92
64141;BME280;50436;50.618;7.932;2023-07-22T09:42:25;96435.75;;;19.62;74.31
64141;BME280;50436;50.618;7.932;2023-07-22T09:45:11;96445.44;;;19.99;74.85
64141;BME280;50436;50.618;7.932;2023-07-22T09:47:58;96439.59;;;19.83;73.49
64141;BME280;50436;50.618;7.932;2023-07-22T09:50:43;96430.94;;;19.59;65.90
64141;BME280;50436;50.618;7.932;2023-07-22T09:53:29;96442.72;;;19.76;74.23
64141;BME280;50436;50.618;7.932;2023-07-22T09:56:15;96432.16;;;20.20;63.56
64141;BME280;50436;50.618;7.932;2023-07-22T09:59:04;96436.81;;;20.19;64.56
64141;BME280;50436;50.618;7.932;2023-07-22T10:01:51;96429.22;;;20.39;66.76
64141;BME280;50436;50.618;7.932;2023-07-22T10:04:40;96435.41;;;20.53;66.84
64141;BME280;50436;50.618;7.932;2023-07-22T10:07:27;96437.22;;;20.35;56.37
64141;BME280;50436;50.618;7.932;2023-07-22T10:10:15;96434.97;;;20.06;56.62
64141;BME280;50436;50.618;7.932;2023-07-22T10:13:02;96431.25;;;20.24;55.98
64141;BME280;50436;50.618;7.932;2023-07-22T10:15:49;96436.53;;;20.92;52.06
64141;BME280;50436;50.618;7.932;2023-07-22T10:18:35;96418.72;;;21.25;65.75
64141;BME280;50436;50.618;7.932;2023-07-22T10:21:24;96423.56;;;21.80;66.68
64141;BME280;50436;50.618;7.932;2023-07-22T10:24:11;96429.81;;;20.89;55.46
64141;BME280;50436;50.618;7.932;2023-07-22T10:26:57;96414.50;;;21.02;63.40
64141;BME280;50436;50.618;7.932;2023-07-22T10:29:44;96420.91;;;21.06;57.16
64141;BME280;50436;50.618;7.932;2023-07-22T10:32:33;96420.34;;;21.35;63.08
64141;BME280;50436;50.618;7.932;2023-07-22T10:38:13;96420.34;;;22.13;52.70
64141;BME280;50436;50.618;7.932;2023-07-22T10:41:00;96414.56;;;22.06;56.34
64141;BME280;50436;50.618;7.932;2023-07-22T10:43:57;96413.75;;;22.31;56.08
64141;BME280;50436;50.618;7.932;2023-07-22T10:46:57;96423.50;;;22.88;56.20
64141;BME280;50436;50.618;7.932;2023-07-22T10:49:47;96410.72;;;23.09;53.66
64141;BME280;50436;50.618;7.932;2023-07-22T10:52:41;96418.09;;;23.08;44.76
64141;BME280;50436;50.618;7.932;2023-07-22T10:55:28;96407.88;;;23.26;47.89
64141;BME280;50436;50.618;7.932;2023-07-22T10:58:13;96406.75;;;22.60;54.27
64141;BME280;50436;50.618;7.932;2023-07-22T11:04:26;96409.81;;;22.58;50.56
64141;BME280;50436;50.618;7.932;2023-07-22T11:07:42;96401.94;;;22.18;57.21
64141;BME280;50436;50.618;7.932;2023-07-22T11:10:29;96409.81;;;22.58;56.01
64141;BME280;50436;50.618;7.932;2023-07-22T11:13:14;96413.56;;;22.83;51.49
64141;BME280;50436;50.618;7.932;2023-07-22T11:16:03;96391.06;;;23.45;49.25
64141;BME280;50436;50.618;7.932;2023-07-22T11:18:49;96402.28;;;23.23;48.95
64141;BME280;50436;50.618;7.932;2023-07-22T11:21:35;96382.06;;;23.86;47.65
64141;BME280;50436;50.618;7.932;2023-07-22T11:24:23;96395.63;;;23.12;42.84
64141;BME280;50436;50.618;7.932;2023-07-22T11:27:09;96390.13;;;23.41;41.07
64141;BME280;50436;50.618;7.932;2023-07-22T11:29:59;96376.53;;;23.53;41.53
64141;BME280;50436;50.618;7.932;2023-07-22T11:32:45;96383.78;;;24.94;37.92
64141;BME280;50436;50.618;7.932;2023-07-22T11:35:31;96375.19;;;26.28;33.28
64141;BME280;50436;50.618;7.932;2023-07-22T11:38:19;96367.31;;;28.15;29.79
64141;BME280;50436;50.618;7.932;2023-07-22T11:41:05;96366.66;;;27.79;30.16
64141;BME280;50436;50.618;7.932;2023-07-22T11:43:51;96370.72;;;26.83;33.18
64141;BME280;50436;50.618;7.932;2023-07-22T11:47:02;96365.97;;;27.86;30.41
64141;BME280;50436;50.618;7.932;2023-07-22T11:49:49;96353.28;;;30.02;26.33
64141;BME280;50436;50.618;7.932;2023-07-22T11:52:36;96360.81;;;30.38;26.00
64141;BME280;50436;50.618;7.932;2023-07-22T11:55:22;96362.13;;;31.58;24.90
64141;BME280;50436;50.618;7.932;2023-07-22T11:58:09;96358.25;;;29.02;26.68
64141;BME280;50436;50.618;7.932;2023-07-22T12:01:06;96362.72;;;28.88;25.95
64141;BME280;50436;50.618;7.932;2023-07-22T12:03:55;96349.53;;;29.50;26.73
64141;BME280;50436;50.618;7.932;2023-07-22T12:06:42;96354.84;;;28.63;26.24
64141;BME280;50436;50.618;7.932;2023-07-22T12:09:28;96363.25;;;29.76;26.70
64141;BME280;50436;50.618;7.932;2023-07-22T12:12:14;96356.50;;;27.83;28.92
64141;BME280;50436;50.618;7.932;2023-07-22T12:15:10;96357.41;;;28.75;26.58
64141;BME280;50436;50.618;7.932;2023-07-22T12:18:00;96366.28;;;30.01;26.21
64141;BME280;50436;50.618;7.932;2023-07-22T12:20:46;96358.31;;;31.80;23.20
64141;BME280;50436;50.618;7.932;2023-07-22T12:23:32;96363.63;;;31.38;23.56
64141;BME280;50436;50.618;7.932;2023-07-22T12:26:18;96345.50;;;29.74;24.91
64141;BME280;50436;50.618;7.932;2023-07-22T12:29:04;96348.91;;;30.71;24.89
64141;BME280;50436;50.618;7.932;2023-07-22T12:31:50;96350.59;;;30.83;24.30
64141;BME280;50436;50.618;7.932;2023-07-22T12:34:35;96341.16;;;30.43;24.72
64141;BME280;50436;50.618;7.932;2023-07-22T12:37:22;96341.72;;;29.29;26.20
64141;BME280;50436;50.618;7.932;2023-07-22T12:40:08;96359.50;;;27.39;29.49
64141;BME280;50436;50.618;7.932;2023-07-22T12:42:54;96345.91;;;29.49;26.85
64141;BME280;50436;50.618;7.932;2023-07-22T12:45:40;96336.47;;;29.77;25.84
64141;BME280;50436;50.618;7.932;2023-07-22T12:48:26;96351.97;;;27.36;29.48
64141;BME280;50436;50.618;7.932;2023-07-22T12:51:11;96353.13;;;27.35;28.94
64141;BME280;50436;50.618;7.932;2023-07-22T12:53:58;96340.63;;;29.63;26.56
64141;BME280;50436;50.618;7.932;2023-07-22T12:56:45;96339.06;;;29.09;26.63
64141;BME280;50436;50.618;7.932;2023-07-22T12:59:31;96341.91;;;29.43;26.13
64141;BME280;50436;50.618;7.932;2023-07-22T13:02:17;96336.69;;;32.11;23.86
64141;BME280;50436;50.618;7.932;2023-07-22T13:05:03;96331.63;;;33.27;22.36
64141;BME280;50436;50.618;7.932;2023-07-22T13:07:49;96329.47;;;30.61;24.01
64141;BME280;50436;50.618;7.932;2023-07-22T13:10:36;96334.03;;;28.00;28.56
64141;BME280;50436;50.618;7.932;2023-07-22T13:13:24;96327.69;;;30.42;25.93
64141;BME280;50436;50.618;7.932;2023-07-22T13:16:10;96318.78;;;33.76;21.99
64141;BME280;50436;50.618;7.932;2023-07-22T13:18:56;96329.44;;;29.83;26.12
64141;BME280;50436;50.618;7.932;2023-07-22T13:21:44;96329.13;;;31.94;24.54
64141;BME280;50436;50.618;7.932;2023-07-22T13:24:30;96322.91;;;29.98;25.60
64141;BME280;50436;50.618;7.932;2023-07-22T13:27:16;96315.47;;;29.38;26.05
64141;BME280;50436;50.618;7.932;2023-07-22T13:30:02;96309.44;;;33.41;22.54
64141;BME280;50436;50.618;7.932;2023-07-22T13:32:48;96302.50;;;33.96;20.49
64141;BME280;50436;50.618;7.932;2023-07-22T13:35:34;96303.16;;;32.69;22.36
64141;BME280;50436;50.618;7.932;2023-07-22T13:38:20;96297.28;;;34.05;21.58
64141;BME280;50436;50.618;7.932;2023-07-22T13:41:08;96311.56;;;34.62;20.03
64141;BME280;50436;50.618;7.932;2023-07-22T13:43:54;96311.03;;;33.14;21.26
64141;BME280;50436;50.618;7.932;2023-07-22T13:46:40;96311.22;;;31.66;23.16
64141;BME280;50436;50.618;7.932;2023-07-22T13:49:26;96315.31;;;35.35;18.96
64141;BME280;50436;50.618;7.932;2023-07-22T13:52:12;96290.88;;;36.45;18.66
64141;BME280;50436;50.618;7.932;2023-07-22T13:54:58;96300.47;;;34.62;20.50
64141;BME280;50436;50.618;7.932;2023-07-22T13:57:43;96298.50;;;35.49;20.08
64141;BME280;50436;50.618;7.932;2023-07-22T14:00:29;96304.63;;;36.55;18.06
64141;BME280;50436;50.618;7.932;2023-07-22T14:03:15;96283.63;;;36.98;18.45
64141;BME280;50436;50.618;7.932;2023-07-22T14:06:01;96287.25;;;35.90;19.02
64141;BME280;50436;50.618;7.932;2023-07-22T14:08:47;96287.69;;;34.17;20.67
64141;BME280;50436;50.618;7.932;2023-07-22T14:11:32;96289.31;;;32.52;21.46
64141;BME280;50436;50.618;7.932;2023-07-22T14:14:18;96288.31;;;34.39;20.54
64141;BME280;50436;50.618;7.932;2023-07-22T14:17:05;96284.28;;;35.40;19.02
64141;BME280;50436;50.618;7.932;2023-07-22T14:19:52;96284.75;;;33.72;20.19
64141;BME280;50436;50.618;7.932;2023-07-22T14:22:38;96282.94;;;33.05;20.75
64141;BME280;50436;50.618;7.932;2023-07-22T14:25:24;96281.09;;;29.96;24.50
64141;BME280;50436;50.618;7.932;2023-07-22T14:28:10;96297.03;;;27.94;26.62
64141;BME280;50436;50.618;7.932;2023-07-22T14:30:56;96291.31;;;26.75;27.99
64141;BME280;50436;50.618;7.932;2023-07-22T14:33:44;96294.47;;;26.42;30.39
64141;BME280;50436;50.618;7.932;2023-07-22T14:36:30;96284.88;;;27.37;29.25
64141;BME280;50436;50.618;7.932;2023-07-22T14:39:16;96287.25;;;27.97;26.90
64141;BME280;50436;50.618;7.932;2023-07-22T14:42:03;96265.69;;;29.54;25.38
64141;BME280;50436;50.618;7.932;2023-07-22T14:44:49;96284.69;;;28.08;26.83
64141;BME280;50436;50.618;7.932;2023-07-22T14:47:35;96270.72;;;32.66;22.21